createdAt,value
2018-10-11T00:02:08.541Z,44.13
2018-10-11T00:04:40.531Z,51.57
2018-10-11T00:07:12.536Z,43.37
2018-10-11T00:09:44.501Z,46.27
2018-10-11T00:12:16.553Z,47.43
2018-10-11T00:14:48.569Z,44.70
2018-10-11T00:17:20.566Z,44.20
2018-10-11T00:19:52.612Z,42.57
2018-10-11T00:22:24.626Z,42.83
2018-10-11T00:24:56.659Z,35.07
2018-10-11T00:27:28.656Z,43.40
2018-10-11T00:30:00.698Z,46.10
2018-10-11T00:32:32.691Z,38.73
2018-10-11T00:35:04.760Z,45.83
2018-10-11T00:37:36.743Z,45.33
2018-10-11T00:40:09.480Z,43.50
2018-10-11T00:42:41.467Z,40.07
2018-10-11T00:45:13.501Z,44.80
2018-10-11T00:47:45.543Z,45.97
2018-10-11T00:50:17.543Z,56.73
2018-10-11T00:52:49.513Z,43.13
2018-10-11T00:55:21.602Z,41.93
2018-10-11T00:57:53.626Z,47.50
2018-10-11T01:00:25.696Z,44.67
2018-10-11T01:02:57.686Z,39.20
2018-10-11T01:05:29.697Z,46.27
2018-10-11T01:08:01.670Z,47.10
2018-10-11T01:10:33.695Z,43.87
2018-10-11T01:13:05.954Z,42.63
2018-10-11T01:15:38.113Z,51.57
2018-10-11T01:18:10.126Z,49.00
2018-10-11T01:20:42.142Z,55.43
2018-10-11T01:23:14.153Z,48.97
2018-10-11T01:25:46.202Z,56.73
2018-10-11T01:28:18.232Z,51.63
2018-10-11T01:30:56.107Z,47.80
2018-10-11T01:33:28.133Z,51.33
2018-10-11T01:36:00.115Z,49.83
2018-10-11T01:38:32.139Z,49.47
2018-10-11T01:41:04.279Z,46.70
2018-10-11T01:43:36.301Z,50.00
2018-10-11T01:46:08.296Z,53.90
2018-10-11T01:48:40.358Z,58.57
2018-10-11T01:51:12.330Z,51.87
2018-10-11T01:53:44.350Z,53.23
2018-10-11T01:56:16.330Z,58.90
2018-10-11T01:58:48.356Z,66.40
2018-10-11T02:01:20.323Z,52.87
2018-10-11T02:03:52.357Z,57.27
2018-10-11T02:06:24.354Z,51.87
2018-10-11T02:08:56.410Z,53.40
2018-10-11T02:11:28.437Z,53.87
2018-10-11T02:14:00.430Z,55.17
2018-10-11T02:16:33.081Z,43.83
2018-10-11T02:19:05.106Z,51.87
2018-10-11T02:21:37.153Z,55.00
2018-10-11T02:24:09.720Z,50.67
2018-10-11T02:26:41.714Z,53.43
2018-10-11T02:29:13.689Z,57.87
2018-10-11T02:31:45.732Z,58.10
2018-10-11T02:34:17.713Z,55.33
2018-10-11T02:36:49.704Z,59.70
2018-10-11T02:39:22.507Z,63.47
2018-10-11T02:41:54.525Z,52.87
2018-10-11T02:44:26.550Z,57.13
2018-10-11T02:46:58.541Z,54.30
2018-10-11T02:49:30.566Z,51.23
2018-10-11T02:52:02.537Z,54.10
2018-10-11T02:54:34.548Z,55.70
2018-10-11T02:57:16.866Z,58.00
2018-10-11T02:59:48.896Z,57.00
2018-10-11T03:02:21.390Z,53.33
2018-10-11T03:04:53.442Z,55.47
2018-10-11T03:07:26.233Z,56.37
2018-10-11T03:09:58.318Z,53.57
2018-10-11T03:12:30.317Z,53.27
2018-10-11T03:15:02.366Z,58.03
2018-10-11T03:17:34.367Z,57.37
2018-10-11T03:20:06.393Z,54.93
2018-10-11T03:22:38.414Z,59.50
2018-10-11T03:25:10.447Z,55.07
2018-10-11T03:27:42.438Z,51.20
2018-10-11T03:30:14.439Z,59.70
2018-10-11T03:32:48.140Z,52.50
2018-10-11T03:35:23.387Z,55.30
2018-10-11T03:37:58.133Z,60.90
2018-10-11T03:40:32.962Z,55.73
2018-10-11T03:43:07.790Z,54.97
2018-10-11T03:45:43.220Z,51.00
2018-10-11T03:48:17.710Z,47.13
2018-10-11T03:50:49.734Z,55.17
2018-10-11T03:53:24.179Z,53.27
2018-10-11T03:55:58.561Z,56.17
2018-10-11T03:58:34.194Z,60.47
2018-10-11T04:01:08.487Z,55.63
2018-10-11T04:03:41.725Z,49.50
2018-10-11T04:06:15.648Z,51.57
2018-10-11T04:08:50.139Z,54.30
2018-10-11T04:11:24.912Z,50.30
2018-10-11T04:13:57.734Z,56.37
2018-10-11T04:16:32.042Z,60.87
2018-10-11T04:19:06.816Z,55.47
2018-10-11T04:21:41.140Z,60.77
2018-10-11T04:24:15.278Z,51.40
2018-10-11T04:26:50.341Z,45.97
2018-10-11T04:29:25.063Z,50.03
2018-10-11T04:31:57.059Z,48.80
2018-10-11T04:34:29.077Z,49.07
2018-10-11T04:37:01.078Z,54.80
2018-10-11T04:39:33.196Z,42.57
2018-10-11T04:42:05.645Z,47.87
2018-10-11T04:44:37.674Z,47.43
2018-10-11T04:47:09.663Z,47.67
2018-10-11T04:49:41.685Z,47.23
2018-10-11T04:52:13.679Z,44.87
2018-10-11T04:54:45.671Z,53.77
2018-10-11T04:57:17.658Z,49.97
2018-10-11T04:59:49.672Z,47.83
2018-10-11T05:02:21.652Z,43.30
2018-10-11T05:04:53.670Z,47.67
2018-10-11T05:07:25.825Z,48.30
2018-10-11T05:09:57.831Z,49.40
2018-10-11T05:12:29.854Z,51.53
2018-10-11T05:15:01.883Z,49.83
2018-10-11T05:17:33.907Z,50.50
2018-10-11T05:20:07.137Z,50.93
2018-10-11T05:22:39.134Z,51.07
2018-10-11T05:25:11.177Z,55.43
2018-10-11T05:27:43.196Z,49.20
2018-10-11T05:30:15.190Z,46.10
2018-10-11T05:32:47.231Z,40.50
2018-10-11T05:35:19.210Z,57.93
2018-10-11T05:37:51.221Z,55.07
2018-10-11T05:40:23.233Z,50.50
2018-10-11T05:42:55.274Z,47.00
2018-10-11T05:45:27.743Z,46.47
2018-10-11T05:47:59.730Z,52.87
2018-10-11T05:50:32.067Z,52.80
2018-10-11T05:53:04.108Z,38.47
2018-10-11T05:55:36.151Z,44.33
2018-10-11T05:58:08.152Z,48.07
2018-10-11T06:00:40.196Z,51.40
2018-10-11T06:03:12.173Z,46.10
2018-10-11T06:05:44.212Z,47.17
2018-10-11T06:08:16.209Z,48.33
2018-10-11T06:10:48.685Z,44.93
2018-10-11T06:13:20.761Z,43.73
2018-10-11T06:15:52.781Z,45.50
2018-10-11T06:18:24.770Z,49.67
2018-10-11T06:20:56.791Z,43.30
2018-10-11T06:23:28.781Z,39.10
2018-10-11T06:26:00.811Z,42.33
2018-10-11T06:28:32.937Z,44.97
2018-10-11T06:31:04.991Z,45.97
2018-10-11T06:33:37.001Z,47.00
2018-10-11T06:36:09.053Z,44.43
2018-10-11T06:38:41.099Z,51.10
2018-10-11T06:41:13.149Z,47.60
2018-10-11T06:43:45.162Z,52.60
2018-10-11T06:46:17.181Z,41.13
2018-10-11T06:48:49.210Z,39.73
2018-10-11T06:51:21.211Z,44.40
2018-10-11T06:53:53.253Z,33.10
2018-10-11T06:56:25.238Z,41.10
2018-10-11T06:58:57.252Z,41.90
2018-10-11T07:01:29.250Z,51.60
2018-10-11T07:04:01.263Z,44.83
2018-10-11T07:06:33.286Z,33.23
2018-10-11T07:09:06.894Z,35.63
2018-10-11T07:11:38.876Z,29.70
2018-10-11T07:14:10.884Z,36.93
2018-10-11T07:16:42.857Z,35.40
2018-10-11T07:19:14.903Z,32.63
2018-10-11T07:21:46.879Z,39.37
2018-10-11T07:24:18.995Z,31.33
2018-10-11T07:26:50.983Z,29.60
2018-10-11T07:29:23.017Z,31.17
2018-10-11T07:31:55.004Z,27.63
2018-10-11T07:34:27.017Z,30.97
2018-10-11T07:36:59.049Z,30.13
2018-10-11T07:39:31.079Z,36.93
2018-10-11T07:42:03.108Z,34.58
2018-10-11T07:44:35.113Z,26.80
2018-10-11T07:47:07.201Z,29.63
2018-10-11T07:49:39.206Z,27.10
2018-10-11T07:52:11.207Z,33.98
2018-10-11T07:54:43.194Z,23.83
2018-10-11T07:57:15.213Z,31.90
2018-10-11T07:59:47.193Z,28.98
2018-10-11T08:02:19.202Z,26.27
2018-10-11T08:04:51.212Z,32.63
2018-10-11T08:07:23.266Z,30.08
2018-10-11T08:09:55.270Z,26.12
2018-10-11T08:12:27.293Z,25.57
2018-10-11T08:14:59.330Z,26.80
2018-10-11T08:17:31.976Z,27.50
2018-10-11T08:20:03.922Z,26.17
2018-10-11T08:22:35.804Z,31.55
2018-10-11T08:25:08.082Z,24.40
2018-10-11T08:27:39.858Z,30.08
2018-10-11T08:30:11.951Z,32.28
2018-10-11T08:32:44.320Z,26.77
2018-10-11T08:35:16.143Z,24.50
2018-10-11T08:37:48.185Z,23.92
2018-10-11T08:40:20.668Z,23.32
2018-10-11T08:42:52.189Z,25.65
2018-10-11T08:45:24.216Z,22.13
2018-10-11T08:47:56.217Z,26.40
2018-10-11T08:50:28.260Z,29.20
2018-10-11T08:53:00.310Z,27.58
2018-10-11T08:55:32.414Z,27.85
2018-10-11T08:58:04.366Z,22.10
2018-10-11T09:00:36.399Z,27.67
2018-10-11T09:03:08.485Z,28.30
2018-10-11T09:05:40.544Z,35.28
2018-10-11T09:08:12.562Z,22.58
2018-10-11T09:10:44.639Z,21.48
2018-10-11T09:13:16.634Z,23.75
2018-10-11T09:15:48.622Z,23.92
2018-10-11T09:18:20.662Z,25.05
2018-10-11T09:20:52.661Z,21.55
2018-10-11T09:23:24.842Z,26.70
2018-10-11T09:25:56.829Z,26.77
2018-10-11T09:28:28.830Z,20.30
2018-10-11T09:31:00.859Z,21.45
2018-10-11T09:33:33.132Z,24.23
2018-10-11T09:36:04.925Z,20.95
2018-10-11T09:38:36.999Z,21.00
2018-10-11T09:41:09.134Z,19.75
2018-10-11T09:43:41.278Z,27.50
2018-10-11T09:46:13.306Z,20.57
2018-10-11T09:48:45.382Z,25.80
2018-10-11T09:51:17.364Z,20.65
2018-10-11T09:53:49.384Z,25.75
2018-10-11T09:56:21.432Z,26.45
2018-10-11T09:58:53.431Z,23.27
2018-10-11T10:01:31.189Z,22.20
2018-10-11T10:04:03.241Z,25.20
2018-10-11T10:06:35.246Z,21.87
2018-10-11T10:09:07.324Z,28.50
2018-10-11T10:11:39.338Z,25.23
2018-10-11T10:14:11.375Z,18.30
2018-10-11T10:16:43.406Z,20.80
2018-10-11T10:19:15.439Z,23.92
2018-10-11T10:21:47.426Z,25.17
2018-10-11T10:24:19.722Z,24.18
2018-10-11T10:26:51.811Z,25.95
2018-10-11T10:29:23.776Z,25.92
2018-10-11T10:31:55.944Z,23.65
2018-10-11T10:34:28.178Z,20.40
2018-10-11T10:37:00.222Z,25.15
2018-10-11T10:39:32.238Z,20.88
2018-10-11T10:42:04.230Z,26.23
2018-10-11T10:44:36.247Z,20.77
2018-10-11T10:47:08.270Z,26.52
2018-10-11T10:49:40.282Z,16.87
2018-10-11T10:52:12.565Z,16.65
2018-10-11T10:54:44.607Z,23.18
2018-10-11T10:57:16.614Z,19.32
2018-10-11T10:59:48.655Z,27.60
2018-10-11T11:02:20.671Z,21.50
2018-10-11T11:04:52.689Z,26.00
2018-10-11T11:07:24.712Z,23.92
2018-10-11T11:09:56.719Z,18.90
2018-10-11T11:12:28.723Z,29.87
2018-10-11T11:15:00.779Z,28.30
2018-10-11T11:17:32.793Z,34.25
2018-10-11T11:20:04.826Z,19.85
2018-10-11T11:22:36.813Z,20.32
2018-10-11T11:25:08.958Z,19.00
2018-10-11T11:27:40.995Z,28.47
2018-10-11T11:30:13.034Z,25.70
2018-10-11T11:32:45.034Z,20.02
2018-10-11T11:35:17.068Z,17.60
2018-10-11T11:37:49.050Z,22.77
2018-10-11T11:40:21.063Z,20.70
2018-10-11T11:42:53.100Z,20.32
2018-10-11T11:45:25.171Z,19.67
2018-10-11T11:47:57.204Z,23.15
2018-10-11T11:50:29.258Z,16.97
2018-10-11T11:53:01.256Z,22.45
2018-10-11T11:55:33.306Z,28.23
2018-10-11T11:58:05.493Z,21.48
2018-10-11T12:00:37.390Z,25.90
2018-10-11T12:03:09.400Z,20.57
2018-10-11T12:05:41.571Z,16.00
2018-10-11T12:08:13.515Z,25.90
2018-10-11T12:10:45.559Z,24.37
2018-10-11T12:13:17.542Z,22.62
2018-10-11T12:15:49.547Z,21.48
2018-10-11T12:18:21.588Z,17.15
2018-10-11T12:20:53.558Z,22.77
2018-10-11T12:23:25.575Z,17.98
2018-10-11T12:25:57.573Z,19.32
2018-10-11T12:28:29.626Z,24.63
2018-10-11T12:31:01.651Z,17.87
2018-10-11T12:33:33.673Z,23.25
2018-10-11T12:36:05.680Z,23.02
2018-10-11T12:38:37.764Z,18.70
2018-10-11T12:41:09.813Z,20.90
2018-10-11T12:43:41.815Z,21.37
2018-10-11T12:46:13.946Z,25.72
2018-10-11T12:48:45.963Z,18.95
2018-10-11T12:51:17.973Z,24.55
2018-10-11T12:53:50.019Z,22.70
2018-10-11T12:56:22.099Z,22.48
2018-10-11T12:58:54.050Z,20.17
2018-10-11T13:01:26.090Z,19.25
2018-10-11T13:03:58.124Z,15.50
2018-10-11T13:06:30.145Z,27.87
2018-10-11T13:09:02.147Z,16.87
2018-10-11T13:11:34.206Z,25.37
2018-10-11T13:14:06.241Z,21.60
2018-10-11T13:16:38.286Z,21.27
2018-10-11T13:19:10.301Z,22.77
2018-10-11T13:21:42.297Z,20.55
2018-10-11T13:24:14.301Z,20.57
2018-10-11T13:26:46.291Z,20.25
2018-10-11T13:29:18.322Z,24.57
2018-10-11T13:31:50.358Z,18.85
2018-10-11T13:34:22.402Z,20.62
2018-10-11T13:36:54.421Z,23.00
2018-10-11T13:39:26.411Z,27.13
2018-10-11T13:41:58.449Z,21.87
2018-10-11T13:44:30.454Z,20.43
2018-10-11T13:47:02.477Z,20.08
2018-10-11T13:49:34.509Z,21.90
2018-10-11T13:52:06.535Z,20.37
2018-10-11T13:54:38.538Z,22.52
2018-10-11T13:57:10.612Z,19.75
2018-10-11T13:59:42.622Z,25.30
2018-10-11T14:02:14.673Z,20.52
2018-10-11T14:04:46.820Z,29.40
2018-10-11T14:07:18.697Z,21.85
2018-10-11T14:09:50.716Z,24.00
2018-10-11T14:12:22.780Z,25.65
2018-10-11T14:14:54.766Z,17.92
2018-10-11T14:17:26.803Z,26.50
2018-10-11T14:19:58.818Z,25.10
2018-10-11T14:22:31.033Z,25.15
2018-10-11T14:25:03.107Z,14.87
2018-10-11T14:27:35.102Z,22.75
2018-10-11T14:30:07.146Z,19.32
2018-10-11T14:32:39.237Z,22.67
2018-10-11T14:35:11.362Z,26.35
2018-10-11T14:37:43.441Z,17.50
2018-10-11T14:40:15.474Z,18.52
2018-10-11T14:42:47.691Z,23.32
2018-10-11T14:45:19.734Z,19.30
2018-10-11T14:47:51.802Z,36.45
2018-10-11T14:50:23.851Z,25.90
2018-10-11T14:52:55.855Z,18.50
2018-10-11T14:55:27.900Z,16.75
2018-10-11T14:57:59.923Z,18.20
2018-10-11T15:00:31.962Z,26.97
2018-10-11T15:03:04.050Z,19.95
2018-10-11T15:05:36.189Z,22.37
2018-10-11T15:08:08.159Z,21.30
2018-10-11T15:10:40.231Z,17.77
2018-10-11T15:13:12.246Z,21.05
2018-10-11T15:15:44.464Z,25.73
2018-10-11T15:18:17.171Z,18.07
2018-10-11T15:20:49.274Z,23.07
2018-10-11T15:23:21.283Z,19.83
2018-10-11T15:25:53.354Z,21.80
2018-10-11T15:28:25.333Z,27.37
2018-10-11T15:30:57.357Z,21.23
2018-10-11T15:33:29.356Z,23.57
2018-10-11T15:36:01.505Z,20.33
2018-10-11T15:38:33.578Z,29.17
2018-10-11T15:41:05.643Z,31.07
2018-10-11T15:43:37.645Z,22.43
2018-10-11T15:46:09.647Z,31.23
2018-10-11T15:48:41.651Z,19.90
2018-10-11T15:51:13.735Z,25.37
2018-10-11T15:53:45.743Z,27.53
2018-10-11T15:56:17.786Z,17.50
2018-10-11T15:58:49.831Z,27.90
2018-10-11T16:01:21.841Z,30.37
2018-10-11T16:03:54.229Z,25.27
2018-10-11T16:06:26.276Z,23.80
2018-10-11T16:08:58.373Z,20.57
2018-10-11T16:11:33.497Z,26.00
2018-10-11T16:14:05.478Z,31.40
2018-10-11T16:16:37.507Z,24.30
2018-10-11T16:19:09.524Z,27.90
2018-10-11T16:21:41.559Z,23.43
2018-10-11T16:24:13.569Z,31.67
2018-10-11T16:26:45.587Z,24.63
2018-10-11T16:29:17.591Z,31.57
2018-10-11T16:31:49.629Z,34.83
2018-10-11T16:34:21.638Z,28.83
2018-10-11T16:36:53.665Z,32.73
2018-10-11T16:39:25.720Z,29.10
2018-10-11T16:41:57.703Z,24.20
2018-10-11T16:44:29.724Z,35.30
2018-10-11T16:47:01.713Z,36.33
2018-10-11T16:49:33.771Z,22.97
2018-10-11T16:52:05.756Z,28.33
2018-10-11T16:54:41.262Z,27.27
2018-10-11T16:57:14.710Z,21.27
2018-10-11T16:59:46.748Z,24.97
2018-10-11T17:02:18.746Z,22.53
2018-10-11T17:04:50.816Z,32.23
2018-10-11T17:07:23.091Z,21.07
2018-10-11T17:09:55.181Z,29.83
2018-10-11T17:12:27.173Z,31.03
2018-10-11T17:14:59.146Z,30.97
2018-10-11T17:17:31.171Z,27.47
2018-10-11T17:20:03.193Z,34.23
2018-10-11T17:22:35.227Z,27.60
2018-10-11T17:25:07.250Z,21.40
2018-10-11T17:27:39.276Z,21.87
2018-10-11T17:30:11.294Z,24.33
2018-10-11T17:32:43.280Z,21.87
2018-10-11T17:35:15.397Z,25.07
2018-10-11T17:37:47.374Z,22.27
2018-10-11T17:40:19.407Z,28.20
2018-10-11T17:42:51.401Z,21.70
2018-10-11T17:45:23.440Z,31.60
2018-10-11T17:47:55.463Z,36.63
2018-10-11T17:50:27.497Z,24.17
2018-10-11T17:52:59.499Z,26.70
2018-10-11T17:55:31.520Z,24.50
2018-10-11T17:58:03.515Z,22.77
2018-10-11T18:00:35.592Z,20.73
2018-10-11T18:03:07.619Z,22.00
2018-10-11T18:05:41.031Z,23.60
2018-10-11T18:08:13.487Z,32.73
2018-10-11T18:10:45.488Z,26.90
2018-10-11T18:13:17.560Z,20.40
2018-10-11T18:15:49.581Z,25.80
2018-10-11T18:18:21.639Z,25.23
2018-10-11T18:20:53.783Z,22.07
2018-10-11T18:23:25.855Z,28.50
2018-10-11T18:25:57.909Z,21.30
2018-10-11T18:28:29.933Z,24.97
2018-10-11T18:31:01.954Z,29.27
2018-10-11T18:33:34.026Z,21.27
2018-10-11T18:36:06.106Z,22.43
2018-10-11T18:38:38.137Z,24.00
2018-10-11T18:41:10.267Z,29.30
2018-10-11T18:43:42.338Z,21.10
2018-10-11T18:46:16.560Z,26.53
2018-10-11T18:48:48.658Z,20.87
2018-10-11T18:51:20.747Z,24.70
2018-10-11T18:53:52.791Z,23.47
2018-10-11T18:56:24.790Z,28.07
2018-10-11T18:58:56.815Z,33.27
2018-10-11T19:01:28.802Z,25.97
2018-10-11T19:04:00.911Z,26.33
2018-10-11T19:06:33.047Z,26.33
2018-10-11T19:09:06.031Z,22.70
2018-10-11T19:11:38.392Z,28.03
2018-10-11T19:14:10.426Z,20.03
2018-10-11T19:16:42.478Z,24.67
2018-10-11T19:19:14.548Z,22.60
2018-10-11T19:21:46.566Z,26.70
2018-10-11T19:24:18.609Z,26.37
2018-10-11T19:26:50.698Z,34.30
2018-10-11T19:29:22.694Z,27.87
2018-10-11T19:31:54.767Z,26.97
2018-10-11T19:34:26.777Z,26.50
2018-10-11T19:36:59.091Z,27.47
2018-10-11T19:39:32.256Z,24.70
2018-10-11T19:42:04.220Z,31.63
2018-10-11T19:44:36.209Z,23.50
2018-10-11T19:47:08.235Z,26.30
2018-10-11T19:49:40.243Z,21.07
2018-10-11T19:52:12.370Z,28.47
2018-10-11T19:54:44.363Z,23.17
2018-10-11T19:57:16.389Z,30.80
2018-10-11T19:59:48.391Z,28.90
2018-10-11T20:02:20.416Z,23.00
2018-10-11T20:04:52.421Z,29.00
2018-10-11T20:07:24.467Z,22.37
2018-10-11T20:09:56.507Z,26.00
2018-10-11T20:12:28.531Z,28.30
2018-10-11T20:15:00.747Z,26.80
2018-10-11T20:17:33.298Z,28.43
2018-10-11T20:20:05.363Z,30.43
2018-10-11T20:22:37.361Z,25.67
2018-10-11T20:25:09.386Z,24.17
2018-10-11T20:27:41.551Z,21.00
2018-10-11T20:30:13.587Z,21.97
2018-10-11T20:32:45.575Z,21.87
2018-10-11T20:35:17.586Z,29.93
2018-10-11T20:37:49.594Z,18.93
2018-10-11T20:40:21.638Z,18.13
2018-10-11T20:42:53.636Z,26.33
2018-10-11T20:45:25.654Z,21.37
2018-10-11T20:47:57.662Z,23.07
2018-10-11T20:50:29.690Z,29.87
2018-10-11T20:53:01.672Z,33.67
2018-10-11T20:55:33.684Z,32.07
2018-10-11T20:58:05.705Z,25.20
2018-10-11T21:00:37.741Z,35.43
2018-10-11T21:03:09.731Z,36.67
2018-10-11T21:05:41.815Z,33.10
2018-10-11T21:08:13.774Z,29.97
2018-10-11T21:10:45.878Z,36.93
2018-10-11T21:13:17.890Z,25.43
2018-10-11T21:15:49.898Z,24.80
2018-10-11T21:18:21.931Z,26.40
2018-10-11T21:20:53.917Z,24.40
2018-10-11T21:23:25.938Z,30.03
2018-10-11T21:25:57.938Z,30.83
2018-10-11T21:28:30.055Z,27.30
2018-10-11T21:31:02.091Z,29.27
2018-10-11T21:33:34.331Z,34.43
2018-10-11T21:36:06.346Z,40.90
2018-10-11T21:38:38.322Z,27.83
2018-10-11T21:41:10.355Z,28.87
2018-10-11T21:43:42.366Z,24.00
2018-10-11T21:46:14.482Z,23.63
2018-10-11T21:48:46.406Z,28.43
2018-10-11T21:51:18.378Z,31.10
2018-10-11T21:53:50.397Z,27.00
2018-10-11T21:56:22.390Z,30.10
2018-10-11T21:58:54.429Z,27.23
2018-10-11T22:01:26.477Z,27.23
2018-10-11T22:03:58.510Z,30.80
2018-10-11T22:06:30.526Z,35.37
2018-10-11T22:09:04.099Z,27.50
2018-10-11T22:11:36.116Z,22.10
2018-10-11T22:14:08.155Z,32.53
2018-10-11T22:16:40.183Z,25.07
2018-10-11T22:19:12.217Z,20.87
2018-10-11T22:21:44.194Z,30.80
2018-10-11T22:24:16.424Z,27.23
2018-10-11T22:26:48.450Z,33.90
2018-10-11T22:29:20.466Z,31.37
2018-10-11T22:31:52.519Z,22.97
2018-10-11T22:34:24.530Z,24.40
2018-10-11T22:36:56.535Z,34.73
2018-10-11T22:39:28.562Z,26.33
2018-10-11T22:42:00.573Z,23.47
2018-10-11T22:44:32.562Z,27.07
2018-10-11T22:47:04.634Z,25.63
2018-10-11T22:49:36.635Z,26.33
2018-10-11T22:52:08.662Z,27.20
2018-10-11T22:54:40.643Z,26.93
2018-10-11T22:57:12.681Z,26.70
2018-10-11T22:59:44.674Z,27.73
2018-10-11T23:02:16.707Z,28.60
2018-10-11T23:04:48.686Z,30.33
2018-10-11T23:07:20.695Z,35.20
2018-10-11T23:09:52.905Z,28.33
2018-10-11T23:12:24.922Z,31.37
2018-10-11T23:14:56.940Z,28.73
2018-10-11T23:17:28.966Z,32.77
2018-10-11T23:20:00.974Z,29.80
2018-10-11T23:22:33.257Z,34.13
2018-10-11T23:25:05.322Z,30.90
2018-10-11T23:27:37.555Z,34.13
2018-10-11T23:30:10.596Z,33.67
2018-10-11T23:32:42.612Z,30.60
2018-10-11T23:35:14.633Z,35.03
2018-10-11T23:37:46.630Z,29.17
2018-10-11T23:40:18.653Z,33.97
2018-10-11T23:42:50.644Z,36.47
2018-10-11T23:45:22.658Z,34.53
2018-10-11T23:47:54.681Z,35.17
2018-10-11T23:50:26.686Z,37.17
2018-10-11T23:52:58.701Z,31.00
2018-10-11T23:55:31.554Z,39.10
2018-10-11T23:58:03.594Z,37.13
